sensor_id;sensor_type;location;lat;lon;timestamp;P1;durP1;ratioP1;P2;durP2;ratioP2
38262;SDS011;24054;50.128;19.730;2023-04-25T00:00:10;11.30;;;8.75;;
38262;SDS011;24054;50.128;19.730;2023-04-25T00:02:38;12.75;;;8.48;;
38262;SDS011;24054;50.128;19.730;2023-04-25T00:05:05;12.52;;;8.77;;
38262;SDS011;24054;50.128;19.730;2023-04-25T00:07:33;11.73;;;8.85;;
38262;SDS011;24054;50.128;19.730;2023-04-25T00:10:06;13.70;;;9.25;;
38262;SDS011;24054;50.128;19.730;2023-04-25T00:12:34;11.57;;;8.63;;
38262;SDS011;24054;50.128;19.730;2023-04-25T00:15:01;11.30;;;7.65;;
38262;SDS011;24054;50.128;19.730;2023-04-25T00:17:28;13.00;;;8.85;;
38262;SDS011;24054;50.128;19.730;2023-04-25T00:19:56;10.73;;;7.72;;
38262;SDS011;24054;50.128;19.730;2023-04-25T00:22:23;11.68;;;8.13;;
38262;SDS011;24054;50.128;19.730;2023-04-25T00:24:53;10.95;;;7.82;;
38262;SDS011;24054;50.128;19.730;2023-04-25T00:27:23;12.55;;;7.57;;
38262;SDS011;24054;50.128;19.730;2023-04-25T00:29:50;10.27;;;7.60;;
38262;SDS011;24054;50.128;19.730;2023-04-25T00:32:17;10.38;;;7.32;;
38262;SDS011;24054;50.128;19.730;2023-04-25T00:34:44;9.25;;;7.15;;
38262;SDS011;24054;50.128;19.730;2023-04-25T00:37:11;11.90;;;8.05;;
38262;SDS011;24054;50.128;19.730;2023-04-25T00:39:38;11.77;;;7.68;;
38262;SDS011;24054;50.128;19.730;2023-04-25T00:42:05;12.23;;;7.15;;
38262;SDS011;24054;50.128;19.730;2023-04-25T00:44:34;9.85;;;6.68;;
38262;SDS011;24054;50.128;19.730;2023-04-25T00:47:02;11.85;;;7.68;;
38262;SDS011;24054;50.128;19.730;2023-04-25T00:49:29;9.80;;;6.80;;
38262;SDS011;24054;50.128;19.730;2023-04-25T00:51:56;10.95;;;6.90;;
38262;SDS011;24054;50.128;19.730;2023-04-25T00:54:23;10.30;;;7.18;;
38262;SDS011;24054;50.128;19.730;2023-04-25T00:56:51;10.53;;;7.60;;
38262;SDS011;24054;50.128;19.730;2023-04-25T00:59:19;9.45;;;7.15;;
38262;SDS011;24054;50.128;19.730;2023-04-25T01:01:48;8.50;;;6.80;;
38262;SDS011;24054;50.128;19.730;2023-04-25T01:04:15;9.48;;;6.60;;
38262;SDS011;24054;50.128;19.730;2023-04-25T01:06:42;9.88;;;6.68;;
38262;SDS011;24054;50.128;19.730;2023-04-25T01:09:10;8.48;;;6.35;;
38262;SDS011;24054;50.128;19.730;2023-04-25T01:11:37;8.88;;;6.70;;
38262;SDS011;24054;50.128;19.730;2023-04-25T01:14:05;11.67;;;6.73;;
38262;SDS011;24054;50.128;19.730;2023-04-25T01:16:32;8.63;;;6.22;;
38262;SDS011;24054;50.128;19.730;2023-04-25T01:19:01;8.25;;;6.18;;
38262;SDS011;24054;50.128;19.730;2023-04-25T01:21:31;8.50;;;6.20;;
38262;SDS011;24054;50.128;19.730;2023-04-25T01:23:58;9.90;;;6.38;;
38262;SDS011;24054;50.128;19.730;2023-04-25T01:26:26;8.10;;;5.72;;
38262;SDS011;24054;50.128;19.730;2023-04-25T01:28:53;8.57;;;7.07;;
38262;SDS011;24054;50.128;19.730;2023-04-25T01:31:20;7.82;;;6.10;;
38262;SDS011;24054;50.128;19.730;2023-04-25T01:33:47;8.30;;;6.50;;
38262;SDS011;24054;50.128;19.730;2023-04-25T01:36:15;8.93;;;5.82;;
38262;SDS011;24054;50.128;19.730;2023-04-25T01:38:43;8.55;;;5.93;;
38262;SDS011;24054;50.128;19.730;2023-04-25T01:41:12;8.50;;;6.40;;
38262;SDS011;24054;50.128;19.730;2023-04-25T01:43:39;8.50;;;6.20;;
38262;SDS011;24054;50.128;19.730;2023-04-25T01:46:06;7.97;;;5.80;;
38262;SDS011;24054;50.128;19.730;2023-04-25T01:48:33;7.43;;;5.82;;
38262;SDS011;24054;50.128;19.730;2023-04-25T01:51:00;7.20;;;5.43;;
38262;SDS011;24054;50.128;19.730;2023-04-25T01:53:27;7.32;;;5.45;;
38262;SDS011;24054;50.128;19.730;2023-04-25T01:55:56;7.40;;;5.15;;
38262;SDS011;24054;50.128;19.730;2023-04-25T01:58:23;7.55;;;5.03;;
38262;SDS011;24054;50.128;19.730;2023-04-25T02:00:50;7.43;;;5.43;;
38262;SDS011;24054;50.128;19.730;2023-04-25T02:03:17;8.10;;;5.57;;
38262;SDS011;24054;50.128;19.730;2023-04-25T02:05:43;6.18;;;5.03;;
38262;SDS011;24054;50.128;19.730;2023-04-25T02:08:10;7.13;;;5.13;;
38262;SDS011;24054;50.128;19.730;2023-04-25T02:10:37;6.55;;;5.15;;
38262;SDS011;24054;50.128;19.730;2023-04-25T02:13:06;6.63;;;4.70;;
38262;SDS011;24054;50.128;19.730;2023-04-25T02:15:33;7.15;;;4.97;;
38262;SDS011;24054;50.128;19.730;2023-04-25T02:18:00;6.85;;;5.18;;
38262;SDS011;24054;50.128;19.730;2023-04-25T02:20:29;7.10;;;5.18;;
38262;SDS011;24054;50.128;19.730;2023-04-25T02:22:56;7.22;;;5.10;;
38262;SDS011;24054;50.128;19.730;2023-04-25T02:25:23;5.75;;;4.43;;
38262;SDS011;24054;50.128;19.730;2023-04-25T02:27:50;6.47;;;4.70;;
38262;SDS011;24054;50.128;19.730;2023-04-25T02:30:19;7.00;;;4.57;;
38262;SDS011;24054;50.128;19.730;2023-04-25T02:32:46;6.00;;;4.45;;
38262;SDS011;24054;50.128;19.730;2023-04-25T02:35:13;7.15;;;4.90;;
38262;SDS011;24054;50.128;19.730;2023-04-25T02:37:40;7.35;;;5.28;;
38262;SDS011;24054;50.128;19.730;2023-04-25T02:40:08;6.93;;;5.07;;
38262;SDS011;24054;50.128;19.730;2023-04-25T02:42:36;7.53;;;5.05;;
38262;SDS011;24054;50.128;19.730;2023-04-25T02:45:03;6.82;;;4.82;;
38262;SDS011;24054;50.128;19.730;2023-04-25T02:47:32;6.65;;;4.45;;
38262;SDS011;24054;50.128;19.730;2023-04-25T02:49:59;6.97;;;4.88;;
38262;SDS011;24054;50.128;19.730;2023-04-25T02:52:26;5.40;;;4.13;;
38262;SDS011;24054;50.128;19.730;2023-04-25T02:54:53;6.30;;;4.88;;
38262;SDS011;24054;50.128;19.730;2023-04-25T02:57:20;6.88;;;5.07;;
38262;SDS011;24054;50.128;19.730;2023-04-25T02:59:47;5.47;;;4.32;;
38262;SDS011;24054;50.128;19.730;2023-04-25T03:02:14;6.18;;;4.43;;
38262;SDS011;24054;50.128;19.730;2023-04-25T03:04:42;5.75;;;4.18;;
38262;SDS011;24054;50.128;19.730;2023-04-25T03:07:09;5.60;;;4.60;;
38262;SDS011;24054;50.128;19.730;2023-04-25T03:09:36;5.47;;;4.28;;
38262;SDS011;24054;50.128;19.730;2023-04-25T03:12:03;6.00;;;4.30;;
38262;SDS011;24054;50.128;19.730;2023-04-25T03:14:31;6.35;;;4.18;;
38262;SDS011;24054;50.128;19.730;2023-04-25T03:16:58;5.13;;;4.20;;
38262;SDS011;24054;50.128;19.730;2023-04-25T03:19:24;5.15;;;3.90;;
38262;SDS011;24054;50.128;19.730;2023-04-25T03:21:53;5.95;;;4.30;;
38262;SDS011;24054;50.128;19.730;2023-04-25T03:24:20;6.38;;;4.63;;
38262;SDS011;24054;50.128;19.730;2023-04-25T03:26:47;5.22;;;4.15;;
38262;SDS011;24054;50.128;19.730;2023-04-25T03:29:14;6.18;;;4.18;;
38262;SDS011;24054;50.128;19.730;2023-04-25T03:31:41;6.07;;;4.38;;
38262;SDS011;24054;50.128;19.730;2023-04-25T03:34:08;6.32;;;4.30;;
38262;SDS011;24054;50.128;19.730;2023-04-25T03:36:37;4.82;;;3.90;;
38262;SDS011;24054;50.128;19.730;2023-04-25T03:41:32;4.63;;;3.95;;
38262;SDS011;24054;50.128;19.730;2023-04-25T03:43:59;6.32;;;3.95;;
38262;SDS011;24054;50.128;19.730;2023-04-25T03:46:26;4.22;;;3.67;;
38262;SDS011;24054;50.128;19.730;2023-04-25T03:48:53;5.15;;;4.07;;
38262;SDS011;24054;50.128;19.730;2023-04-25T03:51:20;5.05;;;3.88;;
38262;SDS011;24054;50.128;19.730;2023-04-25T03:53:47;5.95;;;4.13;;
38262;SDS011;24054;50.128;19.730;2023-04-25T03:56:15;5.53;;;3.92;;
38262;SDS011;24054;50.128;19.730;2023-04-25T03:58:42;4.00;;;3.38;;
38262;SDS011;24054;50.128;19.730;2023-04-25T04:01:09;4.63;;;3.47;;
38262;SDS011;24054;50.128;19.730;2023-04-25T04:03:36;4.85;;;3.72;;
38262;SDS011;24054;50.128;19.730;2023-04-25T04:06:05;4.95;;;3.60;;
38262;SDS011;24054;50.128;19.730;2023-04-25T04:08:34;5.35;;;3.97;;
38262;SDS011;24054;50.128;19.730;2023-04-25T04:11:01;4.80;;;3.58;;
38262;SDS011;24054;50.128;19.730;2023-04-25T04:13:29;4.38;;;3.70;;
38262;SDS011;24054;50.128;19.730;2023-04-25T04:15:56;4.95;;;3.67;;
38262;SDS011;24054;50.128;19.730;2023-04-25T04:18:24;4.78;;;3.75;;
38262;SDS011;24054;50.128;19.730;2023-04-25T04:20:51;4.78;;;3.60;;
38262;SDS011;24054;50.128;19.730;2023-04-25T04:23:18;4.68;;;3.83;;
38262;SDS011;24054;50.128;19.730;2023-04-25T04:25:46;4.50;;;3.58;;
38262;SDS011;24054;50.128;19.730;2023-04-25T04:28:13;4.32;;;3.40;;
38262;SDS011;24054;50.128;19.730;2023-04-25T04:30:42;4.47;;;3.58;;
38262;SDS011;24054;50.128;19.730;2023-04-25T04:33:11;4.78;;;3.53;;
38262;SDS011;24054;50.128;19.730;2023-04-25T04:35:38;5.88;;;3.88;;
38262;SDS011;24054;50.128;19.730;2023-04-25T04:38:06;5.53;;;3.60;;
38262;SDS011;24054;50.128;19.730;2023-04-25T04:40:33;5.47;;;3.83;;
38262;SDS011;24054;50.128;19.730;2023-04-25T04:43:01;4.20;;;3.47;;
38262;SDS011;24054;50.128;19.730;2023-04-25T04:45:28;4.65;;;3.53;;
38262;SDS011;24054;50.128;19.730;2023-04-25T04:47:57;4.20;;;3.38;;
38262;SDS011;24054;50.128;19.730;2023-04-25T04:50:24;5.00;;;3.47;;
38262;SDS011;24054;50.128;19.730;2023-04-25T04:52:52;4.10;;;3.50;;
38262;SDS011;24054;50.128;19.730;2023-04-25T04:55:20;4.53;;;3.23;;
38262;SDS011;24054;50.128;19.730;2023-04-25T04:57:47;3.83;;;3.17;;
38262;SDS011;24054;50.128;19.730;2023-04-25T05:00:14;4.60;;;3.35;;
38262;SDS011;24054;50.128;19.730;2023-04-25T05:02:41;4.38;;;3.40;;
38262;SDS011;24054;50.128;19.730;2023-04-25T05:05:10;4.22;;;3.25;;
38262;SDS011;24054;50.128;19.730;2023-04-25T05:07:37;3.05;;;2.75;;
38262;SDS011;24054;50.128;19.730;2023-04-25T05:10:07;4.50;;;3.40;;
38262;SDS011;24054;50.128;19.730;2023-04-25T05:12:34;3.78;;;2.92;;
38262;SDS011;24054;50.128;19.730;2023-04-25T05:15:05;4.25;;;3.22;;
38262;SDS011;24054;50.128;19.730;2023-04-25T05:17:33;3.63;;;2.83;;
38262;SDS011;24054;50.128;19.730;2023-04-25T05:20:00;3.28;;;2.55;;
38262;SDS011;24054;50.128;19.730;2023-04-25T05:22:28;4.25;;;2.90;;
38262;SDS011;24054;50.128;19.730;2023-04-25T05:24:55;28.75;;;3.08;;
38262;SDS011;24054;50.128;19.730;2023-04-25T05:27:22;3.20;;;2.90;;
38262;SDS011;24054;50.128;19.730;2023-04-25T05:29:50;3.45;;;2.58;;
38262;SDS011;24054;50.128;19.730;2023-04-25T05:32:17;5.45;;;3.17;;
38262;SDS011;24054;50.128;19.730;2023-04-25T05:34:44;3.90;;;3.10;;
38262;SDS011;24054;50.128;19.730;2023-04-25T05:37:11;5.90;;;3.00;;
38262;SDS011;24054;50.128;19.730;2023-04-25T05:39:40;5.63;;;3.28;;
38262;SDS011;24054;50.128;19.730;2023-04-25T05:42:06;9.55;;;4.68;;
38262;SDS011;24054;50.128;19.730;2023-04-25T05:44:34;17.38;;;4.95;;
38262;SDS011;24054;50.128;19.730;2023-04-25T05:47:00;10.50;;;4.80;;
38262;SDS011;24054;50.128;19.730;2023-04-25T05:49:29;14.63;;;5.70;;
38262;SDS011;24054;50.128;19.730;2023-04-25T05:51:56;14.45;;;4.90;;
38262;SDS011;24054;50.128;19.730;2023-04-25T05:54:23;15.73;;;5.25;;
38262;SDS011;24054;50.128;19.730;2023-04-25T05:56:55;13.48;;;4.95;;
38262;SDS011;24054;50.128;19.730;2023-04-25T05:59:23;12.65;;;4.30;;
38262;SDS011;24054;50.128;19.730;2023-04-25T06:01:50;14.75;;;6.03;;
38262;SDS011;24054;50.128;19.730;2023-04-25T06:04:17;12.18;;;4.88;;
38262;SDS011;24054;50.128;19.730;2023-04-25T06:06:44;10.25;;;4.63;;
38262;SDS011;24054;50.128;19.730;2023-04-25T06:09:11;9.10;;;4.45;;
38262;SDS011;24054;50.128;19.730;2023-04-25T06:11:38;10.50;;;4.03;;
38262;SDS011;24054;50.128;19.730;2023-04-25T06:14:07;10.80;;;4.05;;
38262;SDS011;24054;50.128;19.730;2023-04-25T06:16:33;10.93;;;4.28;;
38262;SDS011;24054;50.128;19.730;2023-04-25T06:19:01;12.55;;;4.32;;
38262;SDS011;24054;50.128;19.730;2023-04-25T06:21:27;10.43;;;4.10;;
38262;SDS011;24054;50.128;19.730;2023-04-25T06:23:54;12.20;;;4.82;;
38262;SDS011;24054;50.128;19.730;2023-04-25T06:26:22;12.23;;;4.90;;
38262;SDS011;24054;50.128;19.730;2023-04-25T06:28:49;10.43;;;4.80;;
38262;SDS011;24054;50.128;19.730;2023-04-25T06:31:17;10.13;;;4.10;;
38262;SDS011;24054;50.128;19.730;2023-04-25T06:33:44;9.50;;;4.30;;
38262;SDS011;24054;50.128;19.730;2023-04-25T06:38:40;12.15;;;4.25;;
38262;SDS011;24054;50.128;19.730;2023-04-25T06:41:07;9.30;;;4.00;;
38262;SDS011;24054;50.128;19.730;2023-04-25T06:43:34;9.00;;;3.72;;
38262;SDS011;24054;50.128;19.730;2023-04-25T06:46:01;9.05;;;3.72;;
38262;SDS011;24054;50.128;19.730;2023-04-25T06:48:29;11.02;;;4.25;;
38262;SDS011;24054;50.128;19.730;2023-04-25T06:50:56;7.00;;;3.53;;
38262;SDS011;24054;50.128;19.730;2023-04-25T06:53:23;13.30;;;4.57;;
38262;SDS011;24054;50.128;19.730;2023-04-25T06:55:50;8.10;;;4.07;;
38262;SDS011;24054;50.128;19.730;2023-04-25T06:58:17;10.27;;;4.38;;
38262;SDS011;24054;50.128;19.730;2023-04-25T07:00:45;8.60;;;3.58;;
38262;SDS011;24054;50.128;19.730;2023-04-25T07:03:11;8.35;;;3.67;;
38262;SDS011;24054;50.128;19.730;2023-04-25T07:05:40;8.35;;;3.40;;
38262;SDS011;24054;50.128;19.730;2023-04-25T07:08:07;9.30;;;4.20;;
38262;SDS011;24054;50.128;19.730;2023-04-25T07:10:34;6.90;;;3.30;;
38262;SDS011;24054;50.128;19.730;2023-04-25T07:13:01;12.95;;;4.20;;
38262;SDS011;24054;50.128;19.730;2023-04-25T07:15:28;8.73;;;3.97;;
38262;SDS011;24054;50.128;19.730;2023-04-25T07:17:56;11.07;;;4.57;;
38262;SDS011;24054;50.128;19.730;2023-04-25T07:20:23;7.13;;;3.30;;
38262;SDS011;24054;50.128;19.730;2023-04-25T07:22:51;11.38;;;3.70;;
38262;SDS011;24054;50.128;19.730;2023-04-25T07:25:18;9.15;;;3.78;;
38262;SDS011;24054;50.128;19.730;2023-04-25T07:27:45;9.13;;;3.40;;
38262;SDS011;24054;50.128;19.730;2023-04-25T07:30:12;8.05;;;3.22;;
38262;SDS011;24054;50.128;19.730;2023-04-25T07:32:40;6.68;;;3.15;;
38262;SDS011;24054;50.128;19.730;2023-04-25T07:35:07;6.85;;;3.00;;
38262;SDS011;24054;50.128;19.730;2023-04-25T07:37:35;10.52;;;3.50;;
38262;SDS011;24054;50.128;19.730;2023-04-25T07:40:07;8.18;;;3.03;;
38262;SDS011;24054;50.128;19.730;2023-04-25T07:42:35;6.55;;;3.17;;
38262;SDS011;24054;50.128;19.730;2023-04-25T07:45:02;18.63;;;4.22;;
38262;SDS011;24054;50.128;19.730;2023-04-25T07:47:29;8.02;;;3.38;;
38262;SDS011;24054;50.128;19.730;2023-04-25T07:49:56;11.80;;;3.35;;
38262;SDS011;24054;50.128;19.730;2023-04-25T07:52:23;7.88;;;3.20;;
38262;SDS011;24054;50.128;19.730;2023-04-25T07:54:50;7.93;;;3.55;;
38262;SDS011;24054;50.128;19.730;2023-04-25T07:57:20;7.68;;;3.40;;
38262;SDS011;24054;50.128;19.730;2023-04-25T07:59:47;7.22;;;3.17;;
38262;SDS011;24054;50.128;19.730;2023-04-25T08:02:14;6.05;;;2.80;;
38262;SDS011;24054;50.128;19.730;2023-04-25T08:04:43;9.07;;;3.55;;
38262;SDS011;24054;50.128;19.730;2023-04-25T08:07:10;5.00;;;2.60;;
38262;SDS011;24054;50.128;19.730;2023-04-25T08:09:38;7.18;;;3.15;;
38262;SDS011;24054;50.128;19.730;2023-04-25T08:12:05;7.10;;;2.90;;
38262;SDS011;24054;50.128;19.730;2023-04-25T08:14:33;11.25;;;2.85;;
38262;SDS011;24054;50.128;19.730;2023-04-25T08:17:02;6.68;;;2.65;;
38262;SDS011;24054;50.128;19.730;2023-04-25T08:19:30;10.18;;;3.13;;
38262;SDS011;24054;50.128;19.730;2023-04-25T08:21:57;5.78;;;2.60;;
38262;SDS011;24054;50.128;19.730;2023-04-25T08:24:24;5.85;;;2.63;;
38262;SDS011;24054;50.128;19.730;2023-04-25T08:26:51;8.77;;;3.55;;
38262;SDS011;24054;50.128;19.730;2023-04-25T08:29:19;6.90;;;2.70;;
38262;SDS011;24054;50.128;19.730;2023-04-25T08:31:49;5.00;;;2.67;;
38262;SDS011;24054;50.128;19.730;2023-04-25T08:34:17;7.68;;;2.58;;
38262;SDS011;24054;50.128;19.730;2023-04-25T08:36:45;8.30;;;3.00;;
38262;SDS011;24054;50.128;19.730;2023-04-25T08:39:12;5.43;;;3.20;;
38262;SDS011;24054;50.128;19.730;2023-04-25T08:41:39;9.60;;;2.53;;
38262;SDS011;24054;50.128;19.730;2023-04-25T08:44:07;5.05;;;2.60;;
38262;SDS011;24054;50.128;19.730;2023-04-25T08:46:37;6.00;;;2.83;;
38262;SDS011;24054;50.128;19.730;2023-04-25T08:49:06;4.30;;;2.40;;
38262;SDS011;24054;50.128;19.730;2023-04-25T08:51:34;10.13;;;3.22;;
38262;SDS011;24054;50.128;19.730;2023-04-25T08:54:08;8.93;;;3.15;;
38262;SDS011;24054;50.128;19.730;2023-04-25T08:56:37;8.23;;;3.47;;
38262;SDS011;24054;50.128;19.730;2023-04-25T09:01:33;8.40;;;3.13;;
38262;SDS011;24054;50.128;19.730;2023-04-25T09:04:02;4.43;;;2.45;;
38262;SDS011;24054;50.128;19.730;2023-04-25T09:06:30;5.38;;;2.70;;
38262;SDS011;24054;50.128;19.730;2023-04-25T09:09:01;4.35;;;2.50;;
38262;SDS011;24054;50.128;19.730;2023-04-25T09:11:30;9.77;;;2.72;;
38262;SDS011;24054;50.128;19.730;2023-04-25T09:14:09;5.45;;;2.50;;
38262;SDS011;24054;50.128;19.730;2023-04-25T09:16:59;7.63;;;2.70;;
38262;SDS011;24054;50.128;19.730;2023-04-25T09:19:28;5.25;;;2.55;;
38262;SDS011;24054;50.128;19.730;2023-04-25T09:24:31;6.53;;;2.90;;
38262;SDS011;24054;50.128;19.730;2023-04-25T09:26:59;6.43;;;2.50;;
38262;SDS011;24054;50.128;19.730;2023-04-25T09:29:29;6.80;;;3.28;;
38262;SDS011;24054;50.128;19.730;2023-04-25T09:32:16;3.20;;;2.20;;
38262;SDS011;24054;50.128;19.730;2023-04-25T09:34:45;6.50;;;2.42;;
38262;SDS011;24054;50.128;19.730;2023-04-25T09:37:18;10.68;;;2.80;;
38262;SDS011;24054;50.128;19.730;2023-04-25T09:39:46;5.65;;;2.33;;
38262;SDS011;24054;50.128;19.730;2023-04-25T09:42:15;4.97;;;2.25;;
38262;SDS011;24054;50.128;19.730;2023-04-25T09:44:43;5.35;;;2.50;;
38262;SDS011;24054;50.128;19.730;2023-04-25T09:47:12;4.50;;;2.53;;
38262;SDS011;24054;50.128;19.730;2023-04-25T09:49:40;6.38;;;2.38;;
38262;SDS011;24054;50.128;19.730;2023-04-25T09:52:09;5.80;;;2.40;;
38262;SDS011;24054;50.128;19.730;2023-04-25T09:54:40;6.05;;;2.55;;
38262;SDS011;24054;50.128;19.730;2023-04-25T09:57:10;6.43;;;2.10;;
38262;SDS011;24054;50.128;19.730;2023-04-25T09:59:39;7.78;;;2.83;;
38262;SDS011;24054;50.128;19.730;2023-04-25T10:02:09;5.65;;;2.60;;
38262;SDS011;24054;50.128;19.730;2023-04-25T10:04:37;5.43;;;2.50;;
38262;SDS011;24054;50.128;19.730;2023-04-25T10:07:05;7.53;;;2.73;;
38262;SDS011;24054;50.128;19.730;2023-04-25T10:09:35;5.07;;;2.08;;
38262;SDS011;24054;50.128;19.730;2023-04-25T10:12:06;3.65;;;1.83;;
38262;SDS011;24054;50.128;19.730;2023-04-25T10:14:34;5.88;;;2.72;;
38262;SDS011;24054;50.128;19.730;2023-04-25T10:17:02;3.65;;;2.50;;
38262;SDS011;24054;50.128;19.730;2023-04-25T10:19:29;5.18;;;2.60;;
38262;SDS011;24054;50.128;19.730;2023-04-25T10:22:00;5.15;;;2.58;;
38262;SDS011;24054;50.128;19.730;2023-04-25T10:24:32;4.53;;;2.33;;
38262;SDS011;24054;50.128;19.730;2023-04-25T10:26:59;5.68;;;2.55;;
38262;SDS011;24054;50.128;19.730;2023-04-25T10:29:29;5.38;;;2.67;;
38262;SDS011;24054;50.128;19.730;2023-04-25T10:31:56;4.43;;;2.17;;
38262;SDS011;24054;50.128;19.730;2023-04-25T10:34:24;5.03;;;1.92;;
38262;SDS011;24054;50.128;19.730;2023-04-25T10:37:03;4.55;;;2.17;;
38262;SDS011;24054;50.128;19.730;2023-04-25T10:39:34;8.23;;;2.50;;
38262;SDS011;24054;50.128;19.730;2023-04-25T10:42:06;6.97;;;2.47;;
38262;SDS011;24054;50.128;19.730;2023-04-25T10:44:36;3.50;;;2.15;;
38262;SDS011;24054;50.128;19.730;2023-04-25T10:47:05;3.58;;;2.40;;
38262;SDS011;24054;50.128;19.730;2023-04-25T10:49:33;5.68;;;2.40;;
38262;SDS011;24054;50.128;19.730;2023-04-25T10:52:16;3.13;;;1.83;;
38262;SDS011;24054;50.128;19.730;2023-04-25T10:54:47;3.85;;;2.20;;
38262;SDS011;24054;50.128;19.730;2023-04-25T10:57:27;36.45;;;19.52;;
38262;SDS011;24054;50.128;19.730;2023-04-25T10:59:59;57.22;;;32.28;;
38262;SDS011;24054;50.128;19.730;2023-04-25T11:02:30;79.97;;;43.13;;
38262;SDS011;24054;50.128;19.730;2023-04-25T11:04:57;103.15;;;57.67;;
38262;SDS011;24054;50.128;19.730;2023-04-25T11:09:59;154.80;;;84.13;;
38262;SDS011;24054;50.128;19.730;2023-04-25T11:12:29;172.07;;;98.15;;
38262;SDS011;24054;50.128;19.730;2023-04-25T11:15:05;191.65;;;106.30;;
38262;SDS011;24054;50.128;19.730;2023-04-25T11:17:33;207.93;;;118.95;;
38262;SDS011;24054;50.128;19.730;2023-04-25T11:20:07;218.93;;;125.20;;
38262;SDS011;24054;50.128;19.730;2023-04-25T11:22:37;215.70;;;119.43;;
38262;SDS011;24054;50.128;19.730;2023-04-25T11:25:06;148.05;;;86.55;;
38262;SDS011;24054;50.128;19.730;2023-04-25T11:27:33;156.43;;;90.68;;
38262;SDS011;24054;50.128;19.730;2023-04-25T11:30:11;141.43;;;80.70;;
38262;SDS011;24054;50.128;19.730;2023-04-25T11:32:40;106.57;;;60.15;;
38262;SDS011;24054;50.128;19.730;2023-04-25T11:35:08;89.45;;;52.92;;
38262;SDS011;24054;50.128;19.730;2023-04-25T11:37:35;81.60;;;48.80;;
38262;SDS011;24054;50.128;19.730;2023-04-25T11:40:02;77.05;;;44.75;;
38262;SDS011;24054;50.128;19.730;2023-04-25T11:42:31;69.43;;;40.85;;
38262;SDS011;24054;50.128;19.730;2023-04-25T11:44:58;69.90;;;39.60;;
38262;SDS011;24054;50.128;19.730;2023-04-25T11:47:30;58.70;;;34.88;;
38262;SDS011;24054;50.128;19.730;2023-04-25T11:49:57;55.97;;;32.95;;
38262;SDS011;24054;50.128;19.730;2023-04-25T11:52:34;53.42;;;29.63;;
38262;SDS011;24054;50.128;19.730;2023-04-25T11:55:03;51.88;;;27.75;;
38262;SDS011;24054;50.128;19.730;2023-04-25T11:57:34;45.13;;;27.30;;
38262;SDS011;24054;50.128;19.730;2023-04-25T12:00:08;39.42;;;23.85;;
38262;SDS011;24054;50.128;19.730;2023-04-25T12:02:39;39.90;;;24.40;;
38262;SDS011;24054;50.128;19.730;2023-04-25T12:05:07;39.17;;;22.92;;
38262;SDS011;24054;50.128;19.730;2023-04-25T12:07:34;35.20;;;22.83;;
38262;SDS011;24054;50.128;19.730;2023-04-25T12:10:05;33.67;;;21.40;;
38262;SDS011;24054;50.128;19.730;2023-04-25T12:12:33;31.08;;;19.88;;
38262;SDS011;24054;50.128;19.730;2023-04-25T12:15:10;35.35;;;21.20;;
38262;SDS011;24054;50.128;19.730;2023-04-25T12:17:41;30.17;;;18.85;;
38262;SDS011;24054;50.128;19.730;2023-04-25T12:20:14;31.65;;;19.48;;
38262;SDS011;24054;50.128;19.730;2023-04-25T12:22:42;31.95;;;17.83;;
38262;SDS011;24054;50.128;19.730;2023-04-25T12:25:11;29.85;;;18.77;;
38262;SDS011;24054;50.128;19.730;2023-04-25T12:27:39;27.50;;;17.10;;
38262;SDS011;24054;50.128;19.730;2023-04-25T12:30:09;31.05;;;18.55;;
38262;SDS011;24054;50.128;19.730;2023-04-25T12:32:36;27.03;;;16.47;;
38262;SDS011;24054;50.128;19.730;2023-04-25T12:35:06;28.48;;;15.60;;
38262;SDS011;24054;50.128;19.730;2023-04-25T12:37:33;27.42;;;15.90;;
38262;SDS011;24054;50.128;19.730;2023-04-25T12:40:00;26.35;;;14.85;;
38262;SDS011;24054;50.128;19.730;2023-04-25T12:44:56;20.67;;;12.80;;
38262;SDS011;24054;50.128;19.730;2023-04-25T12:47:23;23.63;;;14.18;;
38262;SDS011;24054;50.128;19.730;2023-04-25T12:49:50;26.42;;;13.57;;
38262;SDS011;24054;50.128;19.730;2023-04-25T12:52:18;22.90;;;14.45;;
38262;SDS011;24054;50.128;19.730;2023-04-25T12:54:45;21.90;;;14.32;;
38262;SDS011;24054;50.128;19.730;2023-04-25T12:57:12;16.95;;;11.73;;
38262;SDS011;24054;50.128;19.730;2023-04-25T12:59:39;23.98;;;13.65;;
38262;SDS011;24054;50.128;19.730;2023-04-25T13:02:06;20.05;;;14.07;;
38262;SDS011;24054;50.128;19.730;2023-04-25T13:04:33;19.52;;;13.20;;
38262;SDS011;24054;50.128;19.730;2023-04-25T13:07:04;22.83;;;12.05;;
38262;SDS011;24054;50.128;19.730;2023-04-25T13:09:36;20.17;;;12.57;;
38262;SDS011;24054;50.128;19.730;2023-04-25T13:12:03;20.98;;;13.18;;
38262;SDS011;24054;50.128;19.730;2023-04-25T13:14:31;18.03;;;12.07;;
38262;SDS011;24054;50.128;19.730;2023-04-25T13:16:58;19.27;;;12.55;;
38262;SDS011;24054;50.128;19.730;2023-04-25T13:19:26;20.23;;;12.18;;
38262;SDS011;24054;50.128;19.730;2023-04-25T13:24:21;17.73;;;11.77;;
38262;SDS011;24054;50.128;19.730;2023-04-25T13:26:52;20.42;;;11.80;;
38262;SDS011;24054;50.128;19.730;2023-04-25T13:29:19;18.60;;;11.18;;
38262;SDS011;24054;50.128;19.730;2023-04-25T13:31:47;21.25;;;12.35;;
38262;SDS011;24054;50.128;19.730;2023-04-25T13:34:14;28.33;;;12.70;;
38262;SDS011;24054;50.128;19.730;2023-04-25T13:36:41;22.40;;;11.27;;
38262;SDS011;24054;50.128;19.730;2023-04-25T13:39:08;23.50;;;10.10;;
38262;SDS011;24054;50.128;19.730;2023-04-25T13:41:36;20.80;;;9.38;;
38262;SDS011;24054;50.128;19.730;2023-04-25T13:44:05;22.27;;;10.13;;
38262;SDS011;24054;50.128;19.730;2023-04-25T13:46:32;20.77;;;9.52;;
38262;SDS011;24054;50.128;19.730;2023-04-25T13:48:59;16.50;;;9.82;;
38262;SDS011;24054;50.128;19.730;2023-04-25T13:51:26;15.95;;;9.55;;
38262;SDS011;24054;50.128;19.730;2023-04-25T13:53:54;19.38;;;9.50;;
38262;SDS011;24054;50.128;19.730;2023-04-25T13:56:22;16.83;;;8.98;;
38262;SDS011;24054;50.128;19.730;2023-04-25T13:58:49;16.45;;;9.20;;
38262;SDS011;24054;50.128;19.730;2023-04-25T14:01:18;18.55;;;9.43;;
38262;SDS011;24054;50.128;19.730;2023-04-25T14:03:46;21.00;;;9.60;;
38262;SDS011;24054;50.128;19.730;2023-04-25T14:06:13;16.67;;;8.43;;
38262;SDS011;24054;50.128;19.730;2023-04-25T14:08:47;18.27;;;9.48;;
38262;SDS011;24054;50.128;19.730;2023-04-25T14:11:14;17.75;;;8.65;;
38262;SDS011;24054;50.128;19.730;2023-04-25T14:13:44;14.23;;;7.72;;
38262;SDS011;24054;50.128;19.730;2023-04-25T14:16:11;14.25;;;8.00;;
38262;SDS011;24054;50.128;19.730;2023-04-25T14:18:40;15.63;;;7.88;;
38262;SDS011;24054;50.128;19.730;2023-04-25T14:21:07;15.70;;;7.63;;
38262;SDS011;24054;50.128;19.730;2023-04-25T14:23:34;11.10;;;7.40;;
38262;SDS011;24054;50.128;19.730;2023-04-25T14:26:01;12.05;;;7.03;;
38262;SDS011;24054;50.128;19.730;2023-04-25T14:28:29;14.48;;;7.38;;
38262;SDS011;24054;50.128;19.730;2023-04-25T14:30:56;22.58;;;7.80;;
38262;SDS011;24054;50.128;19.730;2023-04-25T14:33:23;14.25;;;7.65;;
38262;SDS011;24054;50.128;19.730;2023-04-25T14:35:54;16.92;;;8.27;;
38262;SDS011;24054;50.128;19.730;2023-04-25T14:38:22;19.50;;;9.35;;
38262;SDS011;24054;50.128;19.730;2023-04-25T14:40:50;16.48;;;8.23;;
38262;SDS011;24054;50.128;19.730;2023-04-25T14:43:19;19.42;;;9.00;;
38262;SDS011;24054;50.128;19.730;2023-04-25T14:45:46;21.42;;;9.40;;
38262;SDS011;24054;50.128;19.730;2023-04-25T14:48:13;21.92;;;9.52;;